createdAt,value
2022-10-11T00:00:34.087Z,5.03
2022-10-11T00:10:35.412Z,4.78
2022-10-11T00:20:36.743Z,4.22
2022-10-11T00:30:38.095Z,4.32
2022-10-11T00:40:39.440Z,5.35
2022-10-11T00:50:40.740Z,5.35
2022-10-11T01:00:42.778Z,5.40
2022-10-11T01:10:44.126Z,5.65
2022-10-11T01:20:45.747Z,5.72
2022-10-11T01:30:47.065Z,6.55
2022-10-11T01:40:48.416Z,5.82
2022-10-11T01:50:49.770Z,6.45
2022-10-11T02:00:51.254Z,7.85
2022-10-11T02:10:52.850Z,7.97
2022-10-11T02:20:54.159Z,9.30
2022-10-11T02:30:55.467Z,10.88
2022-10-11T02:40:56.771Z,11.40
2022-10-11T02:50:58.167Z,11.50
2022-10-11T03:00:59.771Z,13.95
2022-10-11T03:11:01.086Z,15.13
2022-10-11T03:21:02.455Z,17.33
2022-10-11T03:31:03.809Z,17.45
2022-10-11T03:41:05.141Z,18.17
2022-10-11T03:51:06.462Z,19.60
2022-10-11T04:01:07.801Z,19.52
2022-10-11T04:11:09.117Z,20.42
2022-10-11T04:21:10.449Z,19.25
2022-10-11T04:31:11.816Z,18.60
2022-10-11T04:41:13.188Z,16.45
2022-10-11T04:51:14.545Z,13.65
2022-10-11T05:01:16.123Z,11.60
2022-10-11T05:11:17.547Z,10.48
2022-10-11T05:21:18.854Z,10.00
2022-10-11T05:31:20.249Z,8.93
2022-10-11T05:41:21.639Z,6.38
2022-10-11T05:51:22.991Z,4.13
2022-10-11T06:01:24.451Z,3.58
2022-10-11T06:11:25.876Z,2.25
2022-10-11T06:21:27.206Z,2.80
2022-10-11T06:31:28.585Z,2.38
2022-10-11T06:41:29.892Z,2.10
2022-10-11T06:51:31.254Z,2.58
2022-10-11T07:01:32.832Z,2.08
2022-10-11T07:11:34.130Z,1.83
2022-10-11T07:21:35.527Z,2.03
2022-10-11T07:31:36.874Z,2.53
2022-10-11T07:41:44.623Z,2.20
2022-10-11T07:51:46.892Z,2.65
2022-10-11T08:01:48.327Z,2.28
2022-10-11T08:11:49.702Z,2.10
2022-10-11T08:21:51.050Z,2.47
2022-10-11T08:31:52.706Z,3.05
2022-10-11T08:41:54.168Z,3.33
2022-10-11T08:52:00.057Z,2.45
2022-10-11T09:02:01.582Z,3.05
2022-10-11T09:12:03.404Z,3.30
2022-10-11T09:22:04.712Z,3.00
2022-10-11T09:32:06.039Z,2.88
2022-10-11T09:42:07.909Z,2.80
2022-10-11T09:52:09.267Z,2.40
2022-10-11T10:02:10.651Z,2.45
2022-10-11T10:12:12.179Z,3.00
2022-10-11T10:22:13.520Z,2.60
2022-10-11T10:32:15.428Z,3.22
2022-10-11T10:42:16.875Z,3.05
2022-10-11T10:52:18.509Z,3.13
2022-10-11T11:02:40.753Z,3.40
2022-10-11T11:12:41.456Z,3.53
2022-10-11T11:22:42.844Z,3.00
2022-10-11T11:32:45.853Z,3.10
2022-10-11T11:42:47.432Z,3.35
2022-10-11T11:52:48.755Z,3.05
2022-10-11T12:02:50.137Z,3.83
2022-10-11T12:12:51.404Z,3.85
2022-10-11T12:22:52.660Z,3.67
2022-10-11T12:32:54.021Z,3.67
2022-10-11T12:42:55.392Z,4.13
2022-10-11T12:52:56.637Z,4.18
2022-10-11T13:02:58.069Z,3.13
2022-10-11T13:13:00.114Z,4.47
2022-10-11T13:23:01.623Z,4.85
2022-10-11T13:33:03.009Z,3.92
2022-10-11T13:43:05.167Z,4.55
2022-10-11T13:53:06.518Z,3.70
2022-10-11T14:03:07.909Z,3.22
2022-10-11T14:13:09.197Z,3.15
2022-10-11T14:23:10.672Z,3.05
2022-10-11T14:33:11.987Z,2.22
2022-10-11T14:43:13.228Z,2.08
2022-10-11T14:53:14.484Z,2.15
2022-10-11T15:03:15.753Z,2.28
2022-10-11T15:13:17.004Z,1.92
2022-10-11T15:23:18.589Z,2.33
2022-10-11T15:33:19.943Z,1.83
2022-10-11T15:43:24.730Z,2.00
2022-10-11T15:53:28.529Z,1.80
2022-10-11T16:03:30.049Z,1.95
2022-10-11T16:13:31.503Z,1.50
2022-10-11T16:23:33.859Z,1.60
2022-10-11T16:33:35.209Z,2.45
2022-10-11T16:43:36.536Z,2.90
2022-10-11T16:53:37.906Z,2.10
2022-10-11T17:03:39.276Z,2.10
2022-10-11T17:13:40.513Z,2.90
2022-10-11T17:23:41.928Z,2.65
2022-10-11T17:33:43.507Z,3.35
2022-10-11T17:43:44.864Z,2.58
2022-10-11T17:53:46.175Z,3.05
2022-10-11T18:03:47.921Z,2.78
2022-10-11T18:13:49.281Z,4.20
2022-10-11T18:23:50.591Z,3.33
2022-10-11T18:33:51.943Z,3.13
2022-10-11T18:43:53.312Z,3.10
2022-10-11T18:53:54.930Z,3.53
2022-10-11T19:03:59.238Z,3.40
2022-10-11T19:14:02.100Z,3.73
2022-10-11T19:24:03.473Z,3.90
2022-10-11T19:34:04.804Z,3.75
2022-10-11T19:44:07.475Z,3.50
2022-10-11T19:54:08.731Z,4.85
2022-10-11T20:04:18.806Z,3.55
2022-10-11T20:14:31.939Z,4.03
2022-10-11T20:24:35.345Z,3.80
2022-10-11T20:34:39.507Z,3.83
2022-10-11T20:44:40.891Z,3.43
2022-10-11T20:54:42.464Z,3.53
2022-10-11T21:04:44.258Z,3.78
2022-10-11T21:14:45.658Z,3.60
2022-10-11T21:24:46.979Z,3.80
2022-10-11T21:34:48.401Z,3.65
2022-10-11T21:44:49.766Z,3.10
2022-10-11T21:54:51.095Z,3.70
2022-10-11T22:04:52.518Z,3.10
2022-10-11T22:14:53.857Z,3.63
2022-10-11T22:24:55.205Z,3.28
2022-10-11T22:34:56.610Z,2.80
2022-10-11T22:44:57.932Z,3.53
2022-10-11T22:54:59.255Z,3.25
2022-10-11T23:05:00.623Z,3.13
2022-10-11T23:15:02.000Z,3.47
2022-10-11T23:25:03.367Z,2.78
2022-10-11T23:35:05.338Z,2.85
2022-10-11T23:45:06.701Z,3.58
2022-10-11T23:55:08.050Z,3.28
